Погода Зиталана неделю

Герреро, Мексика

05 - 11 марта
  • 05марта
    Сегодня
    +15°
    +33°
    Ясно и безоблачно
    ВремяПогодаТемператураВлажностьДавлениеВетер, м/сВероятность осадков
    00:00Небольшая облачность+19°C62 %613 мм2.6 м/с1 %
    03:00Практически безоблачно+19°C55 %613 мм1.8 м/с1 %
    06:00Небольшая облачность+18°C55 %612 мм0.7 м/с1 %
    09:00Практически безоблачно+20°C39 %614 мм0.3 м/с1 %
    12:00Ясно и безоблачно+29°C25 %616 мм1.1 м/с1 %
    15:00Ясно и безоблачно+32°C26 %616 мм3.2 м/с1 %
    18:00Ясно и безоблачно+26°C50 %614 мм4.1 м/с1 %
    21:00Ясно и безоблачно+21°C75 %613 мм3.3 м/с1 %
  • 06марта
    Среда
    +15°
    +33°
    Ясно и безоблачно
    ВремяПогодаТемператураВлажностьДавлениеВетер, м/сВероятность осадков
    00:00Ясно и безоблачно+19°C81 %613 мм2.5 м/с1 %
    03:00Ясно и безоблачно+18°C82 %612 мм2.4 м/с1 %
    06:00Ясно и безоблачно+17°C75 %611 мм1.4 м/с1 %
    09:00Ясно и безоблачно+21°C42 %614 мм0.5 м/с1 %
    12:00Ясно и безоблачно+29°C28 %617 мм0.7 м/с1 %
    15:00Ясно и безоблачно+32°C27 %616 мм3.9 м/с1 %
    18:00Ясно и безоблачно+26°C60 %614 мм4.3 м/с1 %
    21:00Ясно и безоблачно+21°C87 %614 мм3.4 м/с1 %
  • 07марта
    Четверг
    +17°
    +32°
    Ясно и безоблачно
    ВремяПогодаТемператураВлажностьДавлениеВетер, м/сВероятность осадков
    00:00Ясно и безоблачно+19°C78 %613 мм2.6 м/с1 %
    03:00Ясно и безоблачно+19°C71 %612 мм2.3 м/с1 %
    06:00Ясно и безоблачно+18°C57 %612 мм1.3 м/с1 %
    09:00Ясно и безоблачно+21°C39 %614 мм0.3 м/с1 %
    12:00Ясно и безоблачно+29°C27 %617 мм1.6 м/с1 %
    15:00Ясно и безоблачно+32°C27 %616 мм5.1 м/с1 %
    18:00Ясно и безоблачно+27°C47 %615 мм4.8 м/с1 %
    21:00Ясно и безоблачно+22°C65 %615 мм3.1 м/с1 %
  • 08марта
    Пятница
    +17°
    +34°
    Ясно и безоблачно
    ВремяПогодаТемператураВлажностьДавлениеВетер, м/сВероятность осадков
    00:00Ясно и безоблачно+20°C68 %614 мм2.5 м/с1 %
    03:00Ясно и безоблачно+19°C54 %613 мм2.1 м/с1 %
    06:00Ясно и безоблачно+17°C30 %612 мм0.7 м/с1 %
    09:00Ясно и безоблачно+21°C18 %615 мм0.3 м/с1 %
    12:00Ясно и безоблачно+29°C15 %617 мм0.6 м/с1 %
    15:00Ясно и безоблачно+33°C14 %616 мм4.4 м/с1 %
    18:00Ясно и безоблачно+27°C45 %615 мм4.7 м/с1 %
    21:00Ясно и безоблачно+22°C76 %615 мм3.2 м/с1 %
Мы используем cookies
Соглашаюсь